KGCC/GCC METAR and TAF weather

Enter ICAO airport designator
Station Type Date Time Source
KGCC METAR 2022/06/27 18:53 UTC NOAA

KGCC 271853Z AUTO VRB03KT 10SM CLR 27/04 A3025 RMK AO2 SLP200 T02670039 $


Station Type Date Time Source
KGCC Decoded METAR 2022/06/27 18:53 UTC NOAA

GILLETTE-CAMPBELL CTY AIRPORT , WY, United States (KGCC) 44-20N 105-33W 1320M
Jun 27, 2022 - 02:53 PM EDT / 2022.06.27 1853 UTC
Wind: Variable at 3 MPH (3 KT):0
Visibility: 10 mile(s):0
Sky conditions: clear
Temperature: 80.1 F (26.7 C)
Dew Point: 39.0 F (3.9 C)
Relative Humidity: 23%
Pressure (altimeter): 30.25 in. Hg (1024 hPa)
ob: KGCC 271853Z AUTO VRB03KT 10SM CLR 27/04 A3025 RMK AO2 SLP200 T02670039
cycle: 19

Station Type Date Time Source
KGCC TAF 2022/06/27 18:22 UTC NOAA

TAF KGCC 271720Z 2718/2818 01006KT P6SM SKC
FM280200 VRB05KT P6SM SKC
FM281200 18008KT P6SM SKC

Example: see airport list